CMA CGM Rabelais — 9HA2360 — position and weather

sailwx.info

Track history (hours):
 
Tides and Currents Weather Stations Pressure Air Temp Water Temp Dewpoint Dewpoint Depression Visibility Wind Speed Wind Dir Waves Ship Positions

CMA CGM Rabelais

Last reported at 2017-Dec-15 02:15 UTC. Time now 2017-Dec-16 13:09 UTC.
Position N 37°17' W 000°58'.

Length 300 m; draft 11.6 m.

Type: Ship (hazmat cat D). MMSI: 248430000.

Date/timePositionNaut miles runAvg speedWind from/ knotsBaromVisibWave heightAir tempDewpointWater temp
2017-Dec-15 02:15N 37°17' W 000°58'2016.0
2017-Dec-15 01:00N 37°30' W 000°39'815.7
2017-Dec-15 00:30N 37°36' W 000°32'140 4.8
2017-Dec-13 19:15N 39°13' E 001°37'3820.6
2017-Dec-13 17:23N 39°05' E 002°26'919.9
2017-Dec-13 16:58N 39°03' E 002°36'919.8
2017-Dec-13 16:30N 39°01' E 002°48'1119.9
2017-Dec-13 15:56N 38°59' E 003°02'53419.8
2017-Dec-12 12:57N 36°10' E 013°41'920.0
2017-Dec-12 12:30N 36°05' E 013°50'1020.8
2017-Dec-12 12:00N 35°59' E 014°00'1019.3
2017-Dec-12 11:30N 35°53' E 014°10'1020.1
2017-Dec-12 11:00N 35°47' E 014°20'918.1
2017-Dec-12 10:30N 35°47' E 014°32'3 0.4
2017-Dec-12 03:31N 35°49' E 014°32'0 0.0
2017-Dec-12 03:16N 35°49' E 014°32'0 0.0
2017-Dec-12 01:40N 35°49' E 014°32'0 0.0
2017-Dec-12 01:22N 35°49' E 014°32'0 0.0
2017-Dec-12 00:52N 35°49' E 014°32'0 0.0
2017-Dec-12 00:10N 35°49' E 014°32'0 0.0
2017-Dec-11 23:52N 35°49' E 014°32'0 0.0
2017-Dec-11 23:22N 35°49' E 014°32'0 0.0
2017-Dec-11 20:43N 35°49' E 014°32'0 0.0
2017-Dec-11 20:16N 35°49' E 014°32'0 0.0
2017-Dec-11 19:46N 35°49' E 014°32'0 0.0
2017-Dec-11 19:19N 35°49' E 014°32'0 0.0
2017-Dec-11 18:10N 35°49' E 014°32'0 0.0
2017-Dec-11 17:34N 35°49' E 014°32'0 0.1
2017-Dec-11 17:28N 35°49' E 014°32'0 0.0
2017-Dec-11 16:49N 35°49' E 014°32'0 0.0
2017-Dec-11 15:10N 35°49' E 014°32'0 0.0
2017-Dec-11 14:42N 35°49' E 014°32'0 0.7
2017-Dec-11 14:25N 35°49' E 014°32'2 5.7
2017-Dec-11 14:00N 35°48' E 014°35'5 9.5
2017-Dec-11 13:29N 35°49' E 014°41'611.5
2017-Dec-11 13:00N 35°49' E 014°48'42013.4
2017-Dec-10 05:42N 36°33' E 023°26'314.8
2017-Dec-10 05:30N 36°35' E 023°28'815.1
2017-Dec-10 05:00N 36°41' E 023°34'715.3
2017-Dec-10 04:30N 36°47' E 023°40'815.0
2017-Dec-10 04:00N 36°53' E 023°46'714.8
2017-Dec-10 03:30N 36°59' E 023°51'714.6
2017-Dec-10 03:00N 37°05' E 023°56'714.5
2017-Dec-10 02:30N 37°10' E 024°02'714.4
2017-Dec-10 02:00N 37°16' E 024°07'714.3
2017-Dec-10 01:30N 37°22' E 024°13'714.4
2017-Dec-10 01:00N 37°28' E 024°18'714.2
2017-Dec-10 00:30N 37°33' E 024°23'714.4
2017-Dec-10 00:00N 37°40' E 024°28'714.3
2017-Dec-09 23:30N 37°46' E 024°31'714.6
2017-Dec-09 23:00N 37°53' E 024°35'1913.9
2017-Dec-09 21:40N 38°08' E 024°50'213.6
2017-Dec-09 21:30N 38°09' E 024°52'713.4
2017-Dec-09 20:56N 38°15' E 024°58'613.3
2017-Dec-09 20:30N 38°19' E 025°03'  
Track history (hours):
 
Tides and Currents Weather Stations Pressure Air Temp Water Temp Dewpoint Dewpoint Depression Visibility Wind Speed Wind Dir Waves Ship Positions

CMA CGM Rabelais

Last reported at 2017-Dec-15 02:15 UTC. Time now 2017-Dec-16 13:09 UTC.
Position N 37°17' W 000°58'.

Length 300 m; draft 11.6 m.

Type: Ship (hazmat cat D). MMSI: 248430000.

Date/timePositionNaut miles runAvg speedWind from/ knotsBaromVisibWave heightAir tempDewpointWater temp
2017-Dec-15 02:15N 37°17' W 000°58'2016.0
2017-Dec-15 01:00N 37°30' W 000°39'815.7
2017-Dec-15 00:30N 37°36' W 000°32'140 4.8
2017-Dec-13 19:15N 39°13' E 001°37'3820.6
2017-Dec-13 17:23N 39°05' E 002°26'919.9
2017-Dec-13 16:58N 39°03' E 002°36'919.8
2017-Dec-13 16:30N 39°01' E 002°48'1119.9
2017-Dec-13 15:56N 38°59' E 003°02'53419.8
2017-Dec-12 12:57N 36°10' E 013°41'920.0
2017-Dec-12 12:30N 36°05' E 013°50'1020.8
2017-Dec-12 12:00N 35°59' E 014°00'1019.3
2017-Dec-12 11:30N 35°53' E 014°10'1020.1
2017-Dec-12 11:00N 35°47' E 014°20'918.1
2017-Dec-12 10:30N 35°47' E 014°32'3 0.4
2017-Dec-12 03:31N 35°49' E 014°32'0 0.0
2017-Dec-12 03:16N 35°49' E 014°32'0 0.0
2017-Dec-12 01:40N 35°49' E 014°32'0 0.0
2017-Dec-12 01:22N 35°49' E 014°32'0 0.0
2017-Dec-12 00:52N 35°49' E 014°32'0 0.0
2017-Dec-12 00:10N 35°49' E 014°32'0 0.0
2017-Dec-11 23:52N 35°49' E 014°32'0 0.0
2017-Dec-11 23:22N 35°49' E 014°32'0 0.0
2017-Dec-11 20:43N 35°49' E 014°32'0 0.0
2017-Dec-11 20:16N 35°49' E 014°32'0 0.0
2017-Dec-11 19:46N 35°49' E 014°32'0 0.0
2017-Dec-11 19:19N 35°49' E 014°32'0 0.0
2017-Dec-11 18:10N 35°49' E 014°32'0 0.0
2017-Dec-11 17:34N 35°49' E 014°32'0 0.1
2017-Dec-11 17:28N 35°49' E 014°32'0 0.0
2017-Dec-11 16:49N 35°49' E 014°32'0 0.0
2017-Dec-11 15:10N 35°49' E 014°32'0 0.0
2017-Dec-11 14:42N 35°49' E 014°32'0 0.7
2017-Dec-11 14:25N 35°49' E 014°32'2 5.7
2017-Dec-11 14:00N 35°48' E 014°35'5 9.5
2017-Dec-11 13:29N 35°49' E 014°41'611.5
2017-Dec-11 13:00N 35°49' E 014°48'42013.4
2017-Dec-10 05:42N 36°33' E 023°26'314.8
2017-Dec-10 05:30N 36°35' E 023°28'815.1
2017-Dec-10 05:00N 36°41' E 023°34'715.3
2017-Dec-10 04:30N 36°47' E 023°40'815.0
2017-Dec-10 04:00N 36°53' E 023°46'714.8
2017-Dec-10 03:30N 36°59' E 023°51'714.6
2017-Dec-10 03:00N 37°05' E 023°56'714.5
2017-Dec-10 02:30N 37°10' E 024°02'714.4
2017-Dec-10 02:00N 37°16' E 024°07'714.3
2017-Dec-10 01:30N 37°22' E 024°13'714.4
2017-Dec-10 01:00N 37°28' E 024°18'714.2
2017-Dec-10 00:30N 37°33' E 024°23'714.4
2017-Dec-10 00:00N 37°40' E 024°28'714.3
2017-Dec-09 23:30N 37°46' E 024°31'714.6
2017-Dec-09 23:00N 37°53' E 024°35'1913.9
2017-Dec-09 21:40N 38°08' E 024°50'213.6
2017-Dec-09 21:30N 38°09' E 024°52'713.4
2017-Dec-09 20:56N 38°15' E 024°58'613.3
2017-Dec-09 20:30N 38°19' E 025°03'  

Dump ship's entire track history